Time;durP1;ratioP1;P1;durP2;ratioP2;P2;SDS_P1;SDS_P2;PMS_P1;PMS_P2;Temp;Humidity;BMP_temperature;BMP_pressure;BME280_temperature;BME280_humidity;BME280_pressure;Samples;Min_cycle;Max_cycle;Signal;HPM_P1;HPM_P2
2022/01/15 00:00:17;;;;;;;2.55;0.60;;;;;;;-0.19;64.70;96538.56;5074427;28;20039;-69
2022/01/15 00:02:43;;;;;;;1.00;0.45;;;;;;;-0.27;64.89;96533.19;5073773;28;20052;-69
2022/01/15 00:05:09;;;;;;;1.33;0.70;;;;;;;-0.31;65.38;96535.25;5073754;28;20032;-69
2022/01/15 00:07:35;;;;;;;0.85;0.40;;;;;;;-0.36;65.30;96534.81;5074076;28;20027;-66
2022/01/15 00:10:00;;;;;;;0.60;0.40;;;;;;;-0.33;65.13;96530.13;5074355;28;20028;-69
2022/01/15 00:12:26;;;;;;;0.82;0.32;;;;;;;-0.59;64.94;96488.63;5072378;28;20033;-69
2022/01/15 00:14:53;;;;;;;2.92;0.43;;;;;;;-0.33;64.88;96529.28;5073722;28;20036;-72
2022/01/15 00:17:31;;;;;;;1.90;0.40;;;;;;;-0.53;64.45;96502.97;5072608;28;20386;-69
2022/01/15 00:19:57;;;;;;;2.85;0.80;;;;;;;-0.35;64.02;96533.84;5073919;28;20033;-69
2022/01/15 00:22:22;;;;;;;1.00;0.40;;;;;;;-0.33;63.62;96547.69;5073541;28;20105;-70
2022/01/15 00:24:48;;;;;;;2.53;0.35;;;;;;;-0.32;63.19;96537.06;5072183;28;20036;-70
2022/01/15 00:27:14;;;;;;;1.52;0.30;;;;;;;-0.34;62.48;96543.41;5073769;28;20020;-69
2022/01/15 00:29:39;;;;;;;1.05;0.32;;;;;;;-0.31;62.03;96553.63;5073830;28;20425;-70
2022/01/15 00:32:06;;;;;;;1.80;0.40;;;;;;;-0.37;61.36;96533.16;5072415;28;20032;-70
2022/01/15 00:34:32;;;;;;;1.58;0.40;;;;;;;-0.32;61.69;96546.72;5072229;28;20032;-70
2022/01/15 00:36:57;;;;;;;2.17;0.30;;;;;;;-0.35;61.19;96545.22;5073418;28;20085;-69
2022/01/15 00:39:25;;;;;;;1.13;0.30;;;;;;;-0.30;61.37;96544.78;5072292;28;20036;-69
2022/01/15 00:41:50;;;;;;;3.50;0.40;;;;;;;-0.37;60.96;96533.16;5073079;28;20439;-69
2022/01/15 00:44:16;;;;;;;0.95;0.20;;;;;;;-0.46;61.53;96529.56;5073100;28;20111;-69
2022/01/15 00:46:42;;;;;;;1.05;0.20;;;;;;;-0.29;60.74;96554.34;5072968;28;20032;-69
2022/01/15 00:49:08;;;;;;;0.28;0.20;;;;;;;-0.24;61.04;96560.03;5072809;28;20032;-69
2022/01/15 00:51:34;;;;;;;1.27;0.43;;;;;;;-0.29;60.32;96556.97;5073097;28;20536;-70
2022/01/15 00:53:59;;;;;;;1.50;0.35;;;;;;;-0.46;60.71;96535.66;5072466;28;20045;-70
2022/01/15 00:56:25;;;;;;;3.47;0.45;;;;;;;-0.28;60.58;96557.81;5072907;28;20515;-69
2022/01/15 00:58:52;;;;;;;3.28;0.43;;;;;;;-0.21;60.26;96574.69;5072424;28;20116;-69
2022/01/15 01:01:20;;;;;;;3.72;0.40;;;;;;;-0.16;60.32;96568.06;5071291;28;20429;-70
2022/01/15 01:03:47;;;;;;;1.38;0.47;;;;;;;-0.23;60.28;96563.47;5073214;28;20047;-70
2022/01/15 01:06:13;;;;;;;1.33;0.40;;;;;;;-0.17;59.87;96571.66;5071759;28;20035;-69
2022/01/15 01:08:38;;;;;;;1.00;0.52;;;;;;;-0.13;60.31;96576.63;5072577;28;20028;-66
2022/01/15 01:11:11;;;;;;;1.50;0.30;;;;;;;-0.09;60.08;96584.13;5071834;28;20167;-68
2022/01/15 01:24:19;;;;;;;0.85;0.30;;;;;;;-0.17;62.47;96586.59;5071015;28;20025;-68
2022/01/15 01:26:53;;;;;;;2.65;0.60;;;;;;;-0.19;62.78;96578.00;5072655;28;20481;-69
2022/01/15 01:29:31;;;;;;;1.27;0.38;;;;;;;-0.11;63.01;96593.09;5072187;28;20024;-70
2022/01/15 01:34:25;;;;;;;1.65;0.35;;;;;;;-0.10;62.49;96594.78;5072406;28;20165;-70
2022/01/15 01:39:25;;;;;;;1.73;0.60;;;;;;;-0.17;63.33;96587.44;5070525;28;20056;-70
2022/01/15 01:42:09;;;;;;;0.93;0.45;;;;;;;-0.21;63.61;96582.56;5070709;28;20096;-69
2022/01/15 01:44:41;;;;;;;3.45;0.50;;;;;;;-0.24;63.15;96588.97;5072447;28;20048;-71
2022/01/15 01:47:23;;;;;;;2.28;0.57;;;;;;;-0.24;63.56;96596.84;5070799;28;20359;-70
2022/01/15 01:49:49;;;;;;;1.08;0.55;;;;;;;-0.26;63.36;96593.50;5071605;28;20025;-72
2022/01/15 01:52:14;;;;;;;1.92;0.50;;;;;;;-0.34;63.26;96596.81;5071911;28;20052;-70
2022/01/15 01:54:40;;;;;;;2.67;0.70;;;;;;;-0.32;62.68;96600.16;5071272;28;20101;-71
2022/01/15 01:57:05;;;;;;;1.15;0.50;;;;;;;-0.30;62.45;96603.47;5072151;28;20036;-70
2022/01/15 01:59:31;;;;;;;1.20;0.63;;;;;;;-0.31;62.35;96596.53;5071657;28;20137;-71
2022/01/15 02:01:57;;;;;;;3.92;0.65;;;;;;;-0.45;61.53;96568.84;5072008;28;20157;-71
2022/01/15 02:04:22;;;;;;;1.23;0.50;;;;;;;-0.21;61.79;96601.81;5072105;28;20390;-70
2022/01/15 02:06:48;;;;;;;3.00;0.80;;;;;;;-0.19;61.20;96602.53;5071627;28;20040;-69
2022/01/15 02:09:15;;;;;;;1.92;0.60;;;;;;;-0.13;61.37;96602.94;5071274;28;20466;-69
2022/01/15 02:11:42;;;;;;;1.73;0.63;;;;;;;-0.13;60.98;96605.56;5070869;28;20028;-68
2022/01/15 02:14:08;;;;;;;2.40;0.63;;;;;;;-0.33;60.70;96573.97;5072115;28;20037;-70
2022/01/15 02:16:34;;;;;;;3.00;0.70;;;;;;;-0.10;61.00;96614.03;5071616;28;20032;-70
2022/01/15 02:18:59;;;;;;;3.10;0.52;;;;;;;-0.05;60.83;96621.47;5071056;28;20036;-71
2022/01/15 02:24:09;;;;;;;0.75;0.30;;;;;;;0.04;61.09;96614.56;5071934;28;20068;-71
2022/01/15 02:26:37;;;;;;;1.27;0.47;;;;;;;0.05;60.58;96617.09;5070086;28;20543;-70
2022/01/15 02:29:04;;;;;;;2.00;0.70;;;;;;;-0.29;61.60;96572.72;5069825;28;20097;-69
2022/01/15 02:31:31;;;;;;;3.20;0.55;;;;;;;0.01;61.55;96605.19;5071359;28;20035;-69
2022/01/15 02:33:59;;;;;;;2.33;0.70;;;;;;;0.10;62.31;96619.28;5071583;28;20073;-70
2022/01/15 02:36:26;;;;;;;0.98;0.52;;;;;;;0.09;62.68;96626.34;5069556;28;20033;-68
2022/01/15 02:38:52;;;;;;;1.17;0.70;;;;;;;-0.02;62.90;96601.00;5070787;28;20517;-69
2022/01/15 02:41:33;;;;;;;2.67;0.60;;;;;;;0.10;63.33;96625.38;5070930;28;20441;-69
2022/01/15 02:44:01;;;;;;;0.70;0.55;;;;;;;0.14;63.29;96625.97;5069885;28;20423;-68
2022/01/15 02:48:58;;;;;;;3.10;0.95;;;;;;;0.01;64.23;96628.84;5070667;28;20096;-69
2022/01/15 02:51:29;;;;;;;1.30;0.80;;;;;;;0.02;64.54;96625.25;5069609;28;20491;-70
2022/01/15 02:53:55;;;;;;;2.55;0.88;;;;;;;-0.09;65.23;96623.56;5070801;28;20064;-69
2022/01/15 02:56:25;;;;;;;3.53;0.90;;;;;;;-0.04;64.72;96634.50;5069432;28;20040;-69
2022/01/15 02:58:51;;;;;;;2.38;0.60;;;;;;;-0.16;65.53;96631.16;5071142;28;20028;-67
2022/01/15 03:01:17;;;;;;;3.20;0.80;;;;;;;-0.17;66.02;96636.56;5070632;28;20024;-68
2022/01/15 03:03:43;;;;;;;3.78;1.00;;;;;;;-0.23;65.89;96630.06;5076052;28;20028;-68
2022/01/15 03:06:11;;;;;;;1.63;0.60;;;;;;;-0.14;65.23;96644.16;5077673;28;20044;-66
2022/01/15 03:08:36;;;;;;;2.25;0.98;;;;;;;-0.13;64.97;96639.75;5075872;28;20382;-70
2022/01/15 03:11:02;;;;;;;2.35;0.75;;;;;;;-0.22;65.70;96642.22;5077302;28;20024;-69
2022/01/15 03:13:28;;;;;;;2.60;0.95;;;;;;;-0.25;65.54;96636.41;5077866;28;20424;-71
2022/01/15 03:15:54;;;;;;;0.80;0.70;;;;;;;-0.22;65.88;96638.75;5077144;28;20028;-70
2022/01/15 03:18:19;;;;;;;1.42;0.80;;;;;;;-0.20;65.76;96652.59;5077282;28;20100;-69
2022/01/15 03:20:44;;;;;;;2.08;0.70;;;;;;;-0.54;66.04;96600.38;5077973;28;20032;-70
2022/01/15 03:23:10;;;;;;;3.75;0.90;;;;;;;-0.23;66.67;96648.47;5077919;28;20031;-70
2022/01/15 03:25:35;;;;;;;0.95;0.60;;;;;;;-0.35;65.96;96613.56;5078626;28;20386;-70
2022/01/15 03:28:01;;;;;;;2.67;0.70;;;;;;;-0.26;66.52;96640.81;5078587;28;20115;-69
2022/01/15 03:30:26;;;;;;;3.15;0.80;;;;;;;-0.18;66.55;96659.41;5078783;28;20043;-69
2022/01/15 03:32:52;;;;;;;1.98;0.70;;;;;;;-0.25;66.59;96657.44;5077345;28;20029;-69
2022/01/15 03:35:18;;;;;;;3.80;0.70;;;;;;;-0.58;66.38;96620.81;5077048;28;20028;-68
2022/01/15 03:37:44;;;;;;;1.70;0.57;;;;;;;-0.31;67.14;96666.69;5077676;28;20024;-68
2022/01/15 03:40:12;;;;;;;1.48;0.70;;;;;;;-0.28;66.87;96666.41;5077554;28;20050;-69
2022/01/15 03:42:37;;;;;;;1.77;0.60;;;;;;;-0.33;66.65;96663.34;5077113;28;20036;-69
2022/01/15 03:45:04;;;;;;;1.00;0.52;;;;;;;-0.27;67.35;96675.97;5076765;28;20028;-68
2022/01/15 03:47:30;;;;;;;1.00;0.57;;;;;;;-0.30;66.99;96671.81;5077176;28;20028;-68
2022/01/15 03:49:55;;;;;;;0.65;0.40;;;;;;;-0.33;67.17;96663.34;5077451;28;20178;-69
2022/01/15 03:52:21;;;;;;;2.33;0.50;;;;;;;-0.26;67.51;96689.94;5075767;28;20460;-68
2022/01/15 03:54:46;;;;;;;3.55;0.70;;;;;;;-0.34;67.29;96677.47;5077033;28;20032;-67
2022/01/15 03:57:12;;;;;;;1.00;0.43;;;;;;;-0.31;67.62;96672.78;5075903;28;20402;-68
2022/01/15 03:59:38;;;;;;;1.27;0.60;;;;;;;-0.29;67.73;96677.91;5077314;28;20036;-68
2022/01/15 04:02:04;;;;;;;3.40;0.73;;;;;;;-0.30;67.72;96689.38;5075561;28;20028;-69
2022/01/15 04:04:29;;;;;;;1.73;0.70;;;;;;;-0.35;67.49;96681.06;5076723;28;20028;-69
2022/01/15 04:06:55;;;;;;;1.10;0.38;;;;;;;-0.30;67.83;96702.53;5076994;28;20488;-67
2022/01/15 04:09:20;;;;;;;2.03;0.70;;;;;;;-0.22;67.38;96693.97;5077294;28;20024;-68
2022/01/15 04:11:46;;;;;;;1.30;0.60;;;;;;;-0.34;67.55;96701.13;5076053;28;20359;-67
2022/01/15 04:14:12;;;;;;;1.17;0.43;;;;;;;-0.34;68.14;96709.88;5075267;28;20112;-68
2022/01/15 04:16:38;;;;;;;0.88;0.50;;;;;;;-0.37;67.80;96701.41;5073688;28;20112;-67
2022/01/15 04:19:06;;;;;;;1.50;0.70;;;;;;;-0.33;68.18;96705.41;5074251;28;20036;-67
2022/01/15 04:21:32;;;;;;;1.75;0.63;;;;;;;-0.40;67.80;96693.78;5073808;28;20043;-67
2022/01/15 04:23:57;;;;;;;1.33;0.70;;;;;;;-0.32;67.59;96718.44;5073655;28;20039;-68
2022/01/15 04:26:25;;;;;;;1.35;0.60;;;;;;;-0.32;67.42;96723.69;5073350;28;20029;-68
2022/01/15 04:28:52;;;;;;;1.25;0.60;;;;;;;-0.38;67.96;96705.00;5073822;28;20116;-67
2022/01/15 04:31:18;;;;;;;1.00;0.60;;;;;;;-0.28;67.20;96726.88;5073695;28;20032;-68
2022/01/15 04:33:44;;;;;;;1.90;0.70;;;;;;;-0.26;67.36;96737.28;5073534;28;20029;-68
2022/01/15 04:36:10;;;;;;;1.85;0.55;;;;;;;-0.23;67.33;96726.50;5073190;28;20028;-68
2022/01/15 04:38:38;;;;;;;1.65;0.63;;;;;;;-0.23;66.76;96735.22;5072901;28;20035;-69
2022/01/15 04:41:05;;;;;;;2.78;0.73;;;;;;;-0.18;66.32;96742.69;5072913;28;20030;-69
2022/01/15 04:43:30;;;;;;;2.88;0.82;;;;;;;-0.19;66.34;96734.00;5073086;28;20040;-69
2022/01/15 04:45:56;;;;;;;3.50;0.73;;;;;;;-0.20;66.13;96726.22;5072615;28;20363;-68
2022/01/15 04:48:22;;;;;;;2.58;0.80;;;;;;;-0.22;66.51;96742.16;5071635;28;20030;-67
2022/01/15 04:50:47;;;;;;;2.40;0.80;;;;;;;-0.22;65.99;96743.94;5073085;28;20086;-69
2022/01/15 04:53:13;;;;;;;2.40;0.95;;;;;;;-0.22;66.27;96757.94;5072967;28;20143;-68
2022/01/15 04:55:39;;;;;;;1.65;0.88;;;;;;;-0.17;65.68;96753.09;5073029;28;20046;-69
2022/01/15 04:58:06;;;;;;;3.08;1.08;;;;;;;-0.21;65.50;96754.34;5072546;28;20495;-70
2022/01/15 05:00:33;;;;;;;2.47;0.88;;;;;;;-0.22;65.53;96754.44;5073222;28;20036;-70
2022/01/15 05:02:59;;;;;;;2.50;0.90;;;;;;;-0.22;66.23;96767.59;5075618;28;20025;-69
2022/01/15 05:05:26;;;;;;;1.95;0.80;;;;;;;-0.26;66.37;96761.75;5081387;28;20031;-69
2022/01/15 05:07:53;;;;;;;2.05;0.80;;;;;;;-0.23;66.66;96782.56;5074267;28;20488;-69
2022/01/15 05:10:26;;;;;;;1.80;0.70;;;;;;;-0.18;66.64;96785.63;5072941;28;20036;-68
2022/01/15 05:12:55;;;;;;;2.15;0.75;;;;;;;-0.19;66.22;96780.47;5072628;28;20101;-65
2022/01/15 05:15:21;;;;;;;2.97;1.02;;;;;;;-0.20;66.09;96792.81;5073965;28;20039;-67
2022/01/15 05:17:48;;;;;;;5.43;1.05;;;;;;;-0.25;66.85;96788.91;5063508;28;20040;-62
2022/01/15 05:20:18;;;;;;;2.40;1.17;;;;;;;-0.20;66.58;96802.47;5051271;28;20120;-63
2022/01/15 05:22:48;;;;;;;1.65;0.77;;;;;;;-0.15;66.25;96800.28;5064760;28;20033;-60
2022/01/15 05:25:16;;;;;;;1.63;0.98;;;;;;;-0.17;65.92;96789.91;5071656;28;20028;-66
2022/01/15 05:27:43;;;;;;;1.85;0.73;;;;;;;-0.21;65.57;96801.66;5072282;28;20036;-64
2022/01/15 05:30:10;;;;;;;1.83;0.80;;;;;;;-0.17;65.31;96828.50;5070371;28;20029;-65
2022/01/15 05:32:35;;;;;;;2.55;0.98;;;;;;;-0.20;65.28;96807.72;5070819;28;20107;-65
2022/01/15 05:35:01;;;;;;;3.10;1.20;;;;;;;-0.13;65.44;96826.47;5058512;28;20517;-62
2022/01/15 05:37:27;;;;;;;2.10;0.93;;;;;;;-0.13;65.01;96834.34;5051872;28;20096;-59
2022/01/15 05:39:53;;;;;;;3.20;0.80;;;;;;;-0.19;64.94;96830.44;5051765;28;20032;-64
2022/01/15 05:42:19;;;;;;;3.03;1.05;;;;;;;-0.13;65.01;96850.13;5052161;28;20037;-64
2022/01/15 05:44:45;;;;;;;1.55;0.90;;;;;;;-0.18;64.51;96832.94;5052128;28;20039;-66
2022/01/15 05:47:10;;;;;;;1.80;0.90;;;;;;;-0.10;64.72;96850.72;5050780;28;20041;-66
2022/01/15 05:49:36;;;;;;;1.20;0.80;;;;;;;-0.11;64.72;96849.03;5048425;28;20112;-62
2022/01/15 05:52:02;;;;;;;1.45;0.60;;;;;;;-0.08;64.78;96859.31;5050106;28;20044;-63
2022/01/15 05:54:28;;;;;;;3.05;0.80;;;;;;;-0.06;64.49;96862.63;5052090;28;20123;-63
2022/01/15 05:56:55;;;;;;;2.10;1.00;;;;;;;-0.07;64.81;96874.13;5051626;28;20048;-63
2022/01/15 05:59:20;;;;;;;2.45;0.85;;;;;;;-0.08;65.05;96864.56;5051766;28;20394;-63
2022/01/15 06:01:46;;;;;;;1.23;0.70;;;;;;;-0.05;64.75;96869.56;5051513;28;20028;-63
2022/01/15 06:04:12;;;;;;;6.40;0.90;;;;;;;-0.07;64.92;96870.63;5051651;28;20048;-63
2022/01/15 06:06:37;;;;;;;3.08;0.93;;;;;;;0.00;64.87;96879.69;5051469;28;20539;-63
2022/01/15 06:09:03;;;;;;;3.03;0.90;;;;;;;0.01;64.43;96883.16;5049696;28;20029;-63
2022/01/15 06:11:29;;;;;;;2.33;0.90;;;;;;;-0.06;64.87;96877.56;5053524;28;20410;-63
2022/01/15 06:13:55;;;;;;;1.90;0.77;;;;;;;0.05;64.54;96909.06;5063121;28;20036;-64
2022/01/15 06:16:23;;;;;;;1.05;0.63;;;;;;;0.00;64.41;96895.47;5070408;28;20124;-62
2022/01/15 06:18:48;;;;;;;3.15;0.75;;;;;;;0.03;64.54;96908.38;5051912;28;20086;-64
2022/01/15 06:21:14;;;;;;;3.05;0.90;;;;;;;0.10;64.95;96913.91;5050827;28;20028;-62
2022/01/15 06:23:39;;;;;;;2.92;1.00;;;;;;;0.12;64.79;96926.00;5051573;28;20535;-63
2022/01/15 06:26:05;;;;;;;10.50;1.65;;;;;;;0.19;65.17;96928.09;5050858;28;20033;-63
2022/01/15 06:28:31;;;;;;;3.28;1.25;;;;;;;0.22;65.21;96936.56;5050693;28;20113;-63
2022/01/15 06:30:57;;;;;;;4.05;1.30;;;;;;;0.06;64.70;96908.09;5069275;28;20032;-64
2022/01/15 06:33:23;;;;;;;6.05;1.60;;;;;;;0.27;64.76;96938.81;5070674;28;20035;-66
2022/01/15 06:35:48;;;;;;;6.82;1.40;;;;;;;0.25;65.09;96932.88;5070852;28;20111;-64
2022/01/15 06:38:14;;;;;;;6.47;1.27;;;;;;;0.23;65.39;96934.75;5068597;28;20118;-64
2022/01/15 06:40:39;;;;;;;6.15;1.90;;;;;;;-0.04;65.08;96900.16;5070578;28;20087;-65
2022/01/15 06:43:06;;;;;;;9.45;2.10;;;;;;;0.24;65.27;96945.16;5069562;28;20047;-64
2022/01/15 06:45:33;;;;;;;6.18;1.65;;;;;;;0.28;64.74;96965.00;5070374;28;20107;-64
2022/01/15 06:47:58;;;;;;;11.35;2.20;;;;;;;0.24;64.65;96946.94;5070704;28;20033;-64
2022/01/15 06:50:25;;;;;;;6.97;1.80;;;;;;;0.34;64.99;96963.66;5069531;28;20032;-64
2022/01/15 06:52:51;;;;;;;6.22;1.90;;;;;;;0.18;64.31;96936.94;5070450;28;20056;-66
2022/01/15 06:55:16;;;;;;;3.65;1.20;;;;;;;0.40;64.29;96963.13;5070542;28;20201;-65
2022/01/15 06:57:43;;;;;;;5.00;1.60;;;;;;;0.45;64.38;96970.63;5070960;28;20122;-64
2022/01/15 07:00:11;;;;;;;3.08;1.27;;;;;;;0.42;64.08;96955.91;5069507;28;20059;-63
2022/01/15 07:02:37;;;;;;;3.90;1.50;;;;;;;0.64;63.83;96990.94;5070475;28;20048;-64
2022/01/15 07:05:04;;;;;;;4.35;1.40;;;;;;;0.72;63.63;96985.03;5070759;28;20036;-65
2022/01/15 07:07:29;;;;;;;3.78;1.58;;;;;;;0.80;63.21;96989.63;5051490;28;20048;-65
2022/01/15 07:09:55;;;;;;;4.20;1.60;;;;;;;0.84;62.77;96969.97;5050774;28;20029;-64
2022/01/15 07:12:20;;;;;;;3.60;1.10;;;;;;;1.17;61.66;96991.69;5050705;28;20116;-64
2022/01/15 07:14:46;;;;;;;1.23;0.80;;;;;;;1.20;61.69;97001.97;5050552;28;20029;-63
2022/01/15 07:17:12;;;;;;;3.25;1.13;;;;;;;1.20;61.50;97007.22;5050152;28;20047;-63
2022/01/15 07:19:37;;;;;;;2.10;1.23;;;;;;;1.21;61.60;97013.34;5049166;28;20048;-62
2022/01/15 07:22:04;;;;;;;3.33;0.90;;;;;;;1.26;61.43;97006.72;5050304;28;20112;-62
2022/01/15 07:24:29;;;;;;;4.22;1.30;;;;;;;1.23;61.11;97012.25;5050040;28;20060;-65
2022/01/15 07:26:55;;;;;;;3.80;1.35;;;;;;;1.21;61.84;97013.34;5049188;28;20126;-64
2022/01/15 07:29:24;;;;;;;4.72;1.55;;;;;;;1.25;61.07;97014.75;5049027;28;20045;-64
2022/01/15 07:31:51;;;;;;;1.75;1.00;;;;;;;1.18;61.62;97024.97;5050746;28;20124;-64
2022/01/15 07:34:18;;;;;;;3.78;1.00;;;;;;;1.16;61.76;97032.19;5082272;28;20112;-63
2022/01/15 07:36:50;;;;;;;2.40;1.05;;;;;;;1.20;62.61;97030.94;5049859;28;20055;-63
2022/01/15 07:39:15;;;;;;;3.53;1.10;;;;;;;1.19;61.79;97021.38;5050669;28;20025;-64
2022/01/15 07:41:42;;;;;;;6.15;1.65;;;;;;;1.25;62.13;97035.81;5049142;28;20036;-64
2022/01/15 07:44:07;;;;;;;3.15;1.50;;;;;;;1.28;62.14;97044.31;5048628;28;20119;-64
2022/01/15 07:46:33;;;;;;;1.95;1.10;;;;;;;1.30;61.50;97049.44;5049706;28;20403;-64
2022/01/15 07:48:59;;;;;;;2.13;1.10;;;;;;;1.20;61.43;97049.41;5051509;28;20466;-67
2022/01/15 07:51:25;;;;;;;2.88;1.60;;;;;;;1.23;62.00;97057.06;5054446;28;20025;-62
2022/01/15 07:53:50;;;;;;;2.97;1.73;;;;;;;1.20;62.36;97057.31;5053512;28;20072;-65
2022/01/15 07:56:16;;;;;;;3.42;1.70;;;;;;;1.06;62.24;97063.78;5059074;28;20037;-62
2022/01/15 07:58:41;;;;;;;2.22;0.95;;;;;;;1.02;62.76;97065.00;5073629;28;20028;-63
2022/01/15 08:01:07;;;;;;;4.07;0.90;;;;;;;1.08;63.21;97072.38;5073933;28;20106;-63
2022/01/15 08:03:32;;;;;;;2.45;1.10;;;;;;;1.16;62.36;97082.25;5072468;28;20048;-65
2022/01/15 08:05:58;;;;;;;5.15;1.42;;;;;;;1.22;62.56;97083.53;5067422;28;20029;-67
2022/01/15 08:08:23;;;;;;;4.43;1.85;;;;;;;1.24;62.84;97085.09;5053965;28;20031;-62
2022/01/15 08:10:49;;;;;;;3.47;1.30;;;;;;;1.26;62.75;97080.50;5054023;28;20025;-63
2022/01/15 08:13:14;;;;;;;3.70;1.27;;;;;;;1.24;63.10;97098.25;5052350;28;20112;-64
2022/01/15 08:15:40;;;;;;;3.38;1.55;;;;;;;1.23;62.66;97106.28;5053582;28;20383;-64
2022/01/15 08:18:05;;;;;;;2.42;1.50;;;;;;;1.24;62.84;97093.00;5053767;28;20033;-64
2022/01/15 08:20:31;;;;;;;2.03;1.20;;;;;;;1.22;63.00;97087.03;5053498;28;20128;-64
2022/01/15 08:22:57;;;;;;;2.08;0.93;;;;;;;1.21;61.89;97108.22;5054089;28;20033;-65
2022/01/15 08:25:23;;;;;;;1.70;1.10;;;;;;;1.07;61.23;97096.25;5053254;28;20037;-65
2022/01/15 08:27:49;;;;;;;1.92;1.05;;;;;;;1.12;61.81;97101.94;5053080;28;20156;-65
2022/01/15 08:30:15;;;;;;;2.15;1.00;;;;;;;0.98;61.04;97098.69;5053134;28;20068;-64
2022/01/15 08:32:41;;;;;;;3.28;1.55;;;;;;;1.07;60.51;97120.78;5053194;28;20040;-63
2022/01/15 08:35:07;;;;;;;3.63;1.73;;;;;;;0.86;60.05;97078.66;5085200;28;20029;-65
2022/01/15 08:37:35;;;;;;;2.42;1.38;;;;;;;1.10;59.80;97122.31;5053612;28;20029;-65
2022/01/15 08:40:00;;;;;;;3.65;1.40;;;;;;;1.13;59.58;97125.53;5053078;28;20029;-64
2022/01/15 08:42:26;;;;;;;3.78;1.33;;;;;;;1.21;58.95;97119.63;5085454;28;20036;-63
2022/01/15 08:44:52;;;;;;;2.42;0.90;;;;;;;1.50;58.53;97132.06;5068034;28;20028;-65
2022/01/15 08:47:18;;;;;;;2.90;1.30;;;;;;;1.66;57.79;97133.34;5093181;28;20024;-65
2022/01/15 08:49:44;;;;;;;2.33;0.98;;;;;;;1.65;58.12;97144.88;5087522;28;20097;-63
2022/01/15 08:52:09;;;;;;;1.92;0.90;;;;;;;1.63;57.69;97147.66;5089672;28;20047;-63
2022/01/15 08:54:35;;;;;;;3.95;1.15;;;;;;;1.65;57.11;97152.78;5092648;28;20489;-63
2022/01/15 08:57:01;;;;;;;3.05;1.13;;;;;;;1.71;56.99;97155.72;5092656;28;20031;-66
2022/01/15 08:59:27;;;;;;;1.45;1.00;;;;;;;1.80;56.61;97153.25;5075314;28;20028;-63
2022/01/15 09:01:55;;;;;;;2.17;0.80;;;;;;;1.69;56.63;97149.75;5091861;28;20484;-64
2022/01/15 09:04:21;;;;;;;5.60;1.27;;;;;;;1.65;56.76;97158.91;5079656;28;20039;-64
2022/01/15 09:06:46;;;;;;;4.45;1.80;;;;;;;1.63;56.80;97166.13;5072432;28;20033;-63
2022/01/15 09:09:12;;;;;;;6.10;2.15;;;;;;;1.62;57.02;97163.63;5072656;28;20089;-64
2022/01/15 09:11:37;;;;;;;4.05;1.65;;;;;;;1.75;57.56;97185.34;5063330;28;20032;-65
2022/01/15 09:14:03;;;;;;;3.33;1.70;;;;;;;1.65;57.19;97164.19;5068919;28;20031;-64
2022/01/15 09:16:29;;;;;;;3.58;1.27;;;;;;;1.81;56.78;97190.06;5063375;28;20029;-64
2022/01/15 09:18:56;;;;;;;2.90;1.10;;;;;;;1.84;58.16;97192.44;5069821;28;20027;-64
2022/01/15 09:21:22;;;;;;;1.95;1.08;;;;;;;1.83;58.00;97188.13;5071753;28;20032;-63
2022/01/15 09:23:48;;;;;;;1.35;0.90;;;;;;;1.79;59.04;97194.66;5080912;28;20512;-63
2022/01/15 09:26:23;;;;;;;5.53;1.20;;;;;;;1.65;59.44;97202.91;5072532;28;20119;-64
2022/01/15 09:31:35;;;;;;;3.35;1.60;;;;;;;1.62;60.47;97211.09;5071082;28;20035;-65
2022/01/15 09:34:01;;;;;;;3.10;1.60;;;;;;;1.72;59.71;97207.53;5070825;28;20032;-67
2022/01/15 09:36:26;;;;;;;3.20;1.60;;;;;;;1.84;59.62;97218.81;5079618;28;20031;-64
2022/01/15 09:38:52;;;;;;;4.03;1.70;;;;;;;1.92;58.90;97228.72;5091075;28;20093;-70
2022/01/15 09:41:18;;;;;;;4.43;2.15;;;;;;;1.90;58.77;97213.97;5091879;28;20081;-64
2022/01/15 09:43:45;;;;;;;3.78;2.00;;;;;;;1.83;59.10;97232.97;5092331;28;20469;-69
2022/01/15 09:46:11;;;;;;;3.80;1.70;;;;;;;1.75;60.37;97227.53;5080808;28;20436;-73
2022/01/15 09:48:38;;;;;;;4.00;1.60;;;;;;;1.71;61.17;97228.78;5071436;28;20043;-75
2022/01/15 09:51:04;;;;;;;7.88;1.98;;;;;;;1.65;60.75;97232.78;5070667;28;20120;-71
2022/01/15 09:53:33;;;;;;;2.90;1.20;;;;;;;1.60;61.58;97245.53;5069727;28;20497;-66
2022/01/15 09:55:59;;;;;;;3.72;1.50;;;;;;;1.49;61.26;97232.41;5071637;28;20043;-71
2022/01/15 09:58:25;;;;;;;4.32;1.42;;;;;;;1.51;61.38;97243.66;5071110;28;20028;-67
2022/01/15 10:00:50;;;;;;;4.53;1.42;;;;;;;1.62;61.36;97258.56;5078287;28;20123;-69
2022/01/15 10:03:16;;;;;;;2.95;1.30;;;;;;;1.65;59.69;97253.03;5083404;28;20103;-70
2022/01/15 10:05:42;;;;;;;3.50;1.10;;;;;;;1.51;59.99;97252.41;5091517;28;20051;-71
2022/01/15 10:08:13;;;;;;;1.40;0.93;;;;;;;1.53;61.03;97281.28;5091284;28;20024;-71
2022/01/15 10:10:46;;;;;;;3.53;1.50;;;;;;;1.54;60.69;97273.25;5090868;28;20035;-71
2022/01/15 10:13:13;;;;;;;5.47;1.52;;;;;;;1.61;59.26;97278.00;5091198;28;20031;-72
2022/01/15 10:15:41;;;;;;;3.47;1.23;;;;;;;1.52;59.86;97267.25;5090919;28;20465;-70
2022/01/15 10:18:27;;;;;;;3.47;1.30;;;;;;;1.79;59.47;97296.69;5090599;28;20085;-71
2022/01/15 10:20:55;;;;;;;3.50;1.00;;;;;;;1.86;58.46;97280.19;5089133;28;20024;-72
2022/01/15 10:23:23;;;;;;;3.38;1.40;;;;;;;1.80;58.40;97267.53;5090277;28;20374;-68
2022/01/15 10:26:12;;;;;;;3.03;1.40;;;;;;;2.35;58.07;97292.75;5090122;28;20036;-69
2022/01/15 10:28:55;;;;;;;4.22;1.20;;;;;;;2.58;57.27;97305.72;5090040;28;20430;-69
2022/01/15 10:31:23;;;;;;;5.03;1.33;;;;;;;2.65;56.62;97298.97;5090089;28;20028;-69
2022/01/15 10:33:49;;;;;;;2.75;1.08;;;;;;;2.64;55.91;97313.09;5088929;28;20040;-70
2022/01/15 10:36:24;;;;;;;2.25;1.10;;;;;;;2.44;56.59;97302.53;5088585;28;20036;-70
2022/01/15 10:38:50;;;;;;;2.92;0.90;;;;;;;2.15;56.49;97303.25;5087880;28;20039;-67
2022/01/15 10:41:31;;;;;;;2.03;0.85;;;;;;;1.91;56.90;97313.25;5075354;28;20124;-69
2022/01/15 10:43:56;;;;;;;1.52;0.85;;;;;;;1.67;57.33;97301.19;5051947;28;20021;-70
2022/01/15 10:46:33;;;;;;;1.90;0.70;;;;;;;1.65;57.58;97326.88;5069710;28;20036;-69
2022/01/15 10:49:22;;;;;;;2.38;0.90;;;;;;;1.50;57.96;97337.75;5069271;28;20050;-70
2022/01/15 10:52:22;;;;;;;0.90;0.50;;;;;;;1.27;58.11;97347.56;5069673;28;20053;-67
2022/01/15 10:55:07;;;;;;;5.55;2.22;;;;;;;1.25;58.71;97352.13;5069626;28;20041;-66
2022/01/15 10:57:42;;;;;;;5.03;1.20;;;;;;;1.19;58.60;97348.19;5069882;28;20028;-67
2022/01/15 11:00:11;;;;;;;2.80;0.77;;;;;;;1.24;58.40;97353.94;5079757;28;20103;-76
2022/01/15 11:02:41;;;;;;;2.80;0.77;;;;;;;1.18;58.81;97372.88;5070264;28;20047;-70
2022/01/15 11:05:30;;;;;;;2.22;0.63;;;;;;;1.19;58.36;97373.72;5068631;28;20111;-67
2022/01/15 11:08:13;;;;;;;1.30;0.60;;;;;;;1.16;58.46;97369.53;5068874;28;20047;-75
2022/01/15 11:10:44;;;;;;;1.67;0.93;;;;;;;0.67;58.16;97319.03;5070464;28;20032;-72
2022/01/15 11:13:11;;;;;;;2.45;0.77;;;;;;;1.06;57.89;97379.16;5070085;28;20028;-70
2022/01/15 11:15:39;;;;;;;2.13;0.90;;;;;;;1.14;57.75;97387.28;5101692;28;20098;-69
2022/01/15 11:18:05;;;;;;;3.17;0.70;;;;;;;1.17;57.96;97381.75;5069844;28;20035;-66
2022/01/15 11:20:32;;;;;;;2.45;0.90;;;;;;;1.17;57.60;97399.38;5078316;28;20122;-74
2022/01/15 11:23:02;;;;;;;3.85;1.00;;;;;;;1.15;57.68;97386.31;5078423;28;20025;-73
2022/01/15 11:25:29;;;;;;;1.48;0.82;;;;;;;1.09;57.97;97402.63;5075030;28;20039;-73
2022/01/15 11:27:57;;;;;;;3.33;0.90;;;;;;;1.15;58.69;97407.38;5055325;28;20101;-68
2022/01/15 11:30:23;;;;;;;2.85;1.23;;;;;;;1.09;58.02;97406.13;5073749;28;20040;-66
2022/01/15 11:32:49;;;;;;;4.03;1.17;;;;;;;1.10;58.04;97413.06;5073851;28;20047;-67
2022/01/15 11:35:15;;;;;;;4.15;1.45;;;;;;;1.13;58.18;97425.13;5076449;28;20118;-69
2022/01/15 11:37:47;;;;;;;9.35;3.55;;;;;;;1.18;58.12;97430.03;5083519;28;20437;-69
2022/01/15 11:40:48;;;;;;;3.40;1.35;;;;;;;1.25;58.44;97436.47;5064302;28;20029;-75
2022/01/15 11:43:25;;;;;;;3.25;1.10;;;;;;;1.23;58.22;97448.94;5083357;28;20116;-75
2022/01/15 11:45:56;;;;;;;3.03;1.00;;;;;;;1.09;58.43;97442.16;5061660;28;20482;-72
2022/01/15 11:48:25;;;;;;;4.75;1.20;;;;;;;1.02;58.68;97467.31;5072436;28;20999;-71
2022/01/15 11:51:18;;;;;;;5.05;0.80;;;;;;;1.07;59.61;97468.63;5080767;28;20107;-71
2022/01/15 11:53:44;;;;;;;2.60;1.00;;;;;;;0.94;59.70;97474.03;5080506;28;20036;-66
2022/01/15 11:56:18;;;;;;;3.72;1.10;;;;;;;0.66;60.23;97441.97;5082147;28;20403;-69
2022/01/15 11:58:43;;;;;;;2.50;0.93;;;;;;;0.76;60.59;97481.59;5079468;28;20217;-69
2022/01/15 12:01:40;;;;;;;2.13;1.20;;;;;;;0.79;60.81;97491.88;5075479;28;20128;-68
2022/01/15 12:04:23;;;;;;;;;;;;;;;0.95;60.84;97498.59;5093509;28;20515;-67